createdAt,value
2019-03-11T00:00:22.347Z,6.10
2019-03-11T00:02:50.877Z,8.88
2019-03-11T00:05:19.387Z,6.62
2019-03-11T00:07:47.885Z,7.00
2019-03-11T00:10:16.551Z,5.92
2019-03-11T00:12:44.999Z,5.83
2019-03-11T00:15:13.625Z,7.50
2019-03-11T00:17:42.090Z,4.42
2019-03-11T00:20:10.742Z,4.60
2019-03-11T00:22:39.297Z,5.67
2019-03-11T00:25:08.199Z,5.25
2019-03-11T00:27:36.724Z,5.90
2019-03-11T00:30:08.287Z,4.75
2019-03-11T00:32:36.744Z,3.62
2019-03-11T00:35:06.211Z,3.17
2019-03-11T00:37:34.759Z,3.55
2019-03-11T00:40:03.471Z,3.87
2019-03-11T00:42:31.920Z,3.62
2019-03-11T00:45:00.488Z,4.42
2019-03-11T00:47:29.069Z,2.92
2019-03-11T00:49:58.459Z,4.08
2019-03-11T00:52:27.000Z,4.95
2019-03-11T00:54:55.487Z,3.60
2019-03-11T00:57:24.015Z,4.00
2019-03-11T00:59:52.637Z,3.65
2019-03-11T01:02:21.096Z,2.17
2019-03-11T01:04:49.583Z,3.95
2019-03-11T01:07:18.135Z,3.80
2019-03-11T01:09:46.679Z,2.60
2019-03-11T01:12:15.213Z,2.55
2019-03-11T01:14:43.774Z,1.32
2019-03-11T01:17:12.295Z,3.10
2019-03-11T01:19:40.746Z,3.62
2019-03-11T01:22:09.236Z,5.15
2019-03-11T01:24:37.758Z,3.52
2019-03-11T01:27:06.206Z,4.30
2019-03-11T01:29:34.702Z,3.52
2019-03-11T01:32:03.244Z,3.22
2019-03-11T01:34:31.762Z,5.58
2019-03-11T01:37:00.339Z,7.53
2019-03-11T01:39:28.936Z,4.20
2019-03-11T01:41:57.395Z,2.47
2019-03-11T01:44:25.875Z,2.33
2019-03-11T01:46:54.327Z,6.35
2019-03-11T01:49:23.909Z,2.45
2019-03-11T01:51:52.962Z,4.53
2019-03-11T01:54:21.414Z,4.17
2019-03-11T01:56:49.940Z,4.87
2019-03-11T01:59:18.507Z,4.95
2019-03-11T02:01:48.454Z,5.03
2019-03-11T02:04:17.253Z,6.95
2019-03-11T02:06:51.371Z,7.15
2019-03-11T02:09:20.462Z,6.55
2019-03-11T02:11:48.923Z,8.03
2019-03-11T02:14:17.483Z,6.45
2019-03-11T02:16:45.997Z,7.33
2019-03-11T02:19:14.447Z,8.18
2019-03-11T02:21:42.932Z,8.00
2019-03-11T02:24:11.388Z,10.08
2019-03-11T02:26:40.079Z,10.10
2019-03-11T02:29:08.671Z,11.05
2019-03-11T02:31:37.133Z,9.58
2019-03-11T02:34:05.658Z,10.78
2019-03-11T02:36:34.303Z,9.50
2019-03-11T02:39:02.923Z,11.12
2019-03-11T02:41:31.460Z,10.60
2019-03-11T02:43:59.952Z,11.60
2019-03-11T02:46:28.414Z,10.03
2019-03-11T02:48:56.871Z,9.38
2019-03-11T02:51:25.428Z,9.13
2019-03-11T02:53:54.086Z,10.43
2019-03-11T02:56:22.611Z,10.37
2019-03-11T02:58:51.176Z,11.60
2019-03-11T03:01:36.116Z,11.73
2019-03-11T03:04:21.376Z,9.93
2019-03-11T03:06:49.976Z,13.10
2019-03-11T03:09:18.423Z,12.98
2019-03-11T03:11:52.640Z,12.23
2019-03-11T03:14:21.170Z,13.03
2019-03-11T03:16:49.695Z,14.73
2019-03-11T03:19:18.377Z,16.48
2019-03-11T03:21:46.899Z,11.77
2019-03-11T03:24:15.423Z,12.35
2019-03-11T03:26:51.027Z,12.45
2019-03-11T03:29:19.556Z,12.58
2019-03-11T03:31:49.838Z,13.53
2019-03-11T03:34:18.574Z,12.28
2019-03-11T03:36:47.094Z,15.40
2019-03-11T03:39:15.547Z,10.72
2019-03-11T03:41:44.032Z,12.07
2019-03-11T03:44:12.556Z,8.63
2019-03-11T03:46:41.080Z,8.55
2019-03-11T03:49:09.558Z,6.35
2019-03-11T03:51:38.088Z,7.92
2019-03-11T03:54:06.678Z,7.35
2019-03-11T03:56:35.305Z,8.73
2019-03-11T03:59:03.835Z,9.25
2019-03-11T04:01:32.432Z,9.65
2019-03-11T04:04:00.956Z,9.88
2019-03-11T04:06:29.489Z,11.25
2019-03-11T04:08:58.032Z,8.65
2019-03-11T04:11:26.576Z,9.80
2019-03-11T04:13:55.030Z,4.08
2019-03-11T04:16:23.619Z,6.17
2019-03-11T04:18:53.639Z,5.12
2019-03-11T04:21:22.319Z,9.80
2019-03-11T04:23:51.000Z,7.93
2019-03-11T04:26:19.488Z,5.78
2019-03-11T04:28:48.151Z,9.18
2019-03-11T04:31:16.670Z,8.20
2019-03-11T04:33:45.232Z,8.68
2019-03-11T04:36:13.694Z,9.28
2019-03-11T04:38:42.219Z,7.60
2019-03-11T04:41:10.712Z,7.67
2019-03-11T04:43:39.238Z,9.43
2019-03-11T04:46:07.777Z,9.40
2019-03-11T04:48:36.316Z,10.38
2019-03-11T04:51:04.831Z,9.93
2019-03-11T04:53:33.307Z,8.03
2019-03-11T04:56:01.849Z,7.20
2019-03-11T04:58:30.692Z,8.05
2019-03-11T05:00:59.152Z,8.50
2019-03-11T05:03:27.723Z,9.35
2019-03-11T05:05:56.243Z,11.33
2019-03-11T05:08:24.703Z,10.32
2019-03-11T05:10:53.180Z,11.45
2019-03-11T05:13:21.635Z,8.35
2019-03-11T05:15:50.079Z,11.30
2019-03-11T05:18:18.563Z,7.80
2019-03-11T05:20:47.022Z,8.18
2019-03-11T05:23:15.623Z,8.03
2019-03-11T05:25:44.172Z,9.65
2019-03-11T05:28:12.759Z,6.80
2019-03-11T05:30:41.510Z,9.68
2019-03-11T05:33:10.046Z,8.35
2019-03-11T05:35:38.565Z,7.62
2019-03-11T05:38:07.087Z,9.08
2019-03-11T05:40:35.572Z,7.72
2019-03-11T05:43:04.100Z,10.20
2019-03-11T05:45:32.619Z,7.58
2019-03-11T05:48:01.114Z,10.98
2019-03-11T05:50:29.638Z,9.53
2019-03-11T05:52:58.094Z,11.05
2019-03-11T05:55:26.589Z,10.10
2019-03-11T05:57:55.038Z,11.08
2019-03-11T06:00:25.299Z,10.82
2019-03-11T06:02:54.019Z,13.62
2019-03-11T06:05:22.487Z,12.33
2019-03-11T06:07:51.039Z,11.93
2019-03-11T06:10:19.672Z,10.90
2019-03-11T06:12:48.378Z,14.17
2019-03-11T06:15:16.939Z,13.90
2019-03-11T06:17:45.534Z,12.47
2019-03-11T06:20:26.100Z,9.77
2019-03-11T06:22:55.011Z,15.32
2019-03-11T06:25:23.532Z,18.65
2019-03-11T06:27:52.217Z,14.10
2019-03-11T06:30:20.864Z,13.58
2019-03-11T06:32:49.590Z,18.27
2019-03-11T06:35:18.174Z,17.17
2019-03-11T06:37:46.932Z,11.53
2019-03-11T06:40:15.630Z,9.93
2019-03-11T06:42:44.185Z,12.47
2019-03-11T06:45:13.919Z,13.48
2019-03-11T06:47:42.466Z,13.08
2019-03-11T06:50:14.734Z,12.25
2019-03-11T06:52:43.240Z,13.68
2019-03-11T06:55:12.611Z,11.03
2019-03-11T06:57:41.203Z,9.38
2019-03-11T07:00:12.814Z,14.28
2019-03-11T07:02:41.504Z,11.48
2019-03-11T07:05:19.389Z,13.07
2019-03-11T07:07:50.302Z,13.30
2019-03-11T07:10:21.939Z,14.00
2019-03-11T07:12:50.737Z,12.28
2019-03-11T07:15:19.183Z,9.50
2019-03-11T07:17:47.795Z,13.43
2019-03-11T07:20:18.656Z,13.18
2019-03-11T07:22:47.316Z,11.10
2019-03-11T07:25:15.904Z,8.85
2019-03-11T07:27:44.483Z,8.53
2019-03-11T07:30:17.896Z,10.53
2019-03-11T07:32:46.420Z,11.03
2019-03-11T07:35:15.004Z,9.30
2019-03-11T07:37:43.586Z,11.70
2019-03-11T07:40:16.511Z,11.18
2019-03-11T07:42:45.342Z,14.05
2019-03-11T07:45:15.038Z,11.07
2019-03-11T07:50:13.417Z,16.85
2019-03-11T07:52:41.952Z,11.48
2019-03-11T07:55:12.215Z,12.75
2019-03-11T07:57:40.707Z,15.00
2019-03-11T08:00:17.408Z,15.45
2019-03-11T08:02:46.109Z,17.92
2019-03-11T08:05:15.623Z,15.38
2019-03-11T08:07:44.099Z,12.75
2019-03-11T08:10:15.204Z,12.28
2019-03-11T08:12:43.801Z,15.18
2019-03-11T08:15:14.093Z,18.40
2019-03-11T08:17:42.579Z,15.28
2019-03-11T08:20:15.359Z,12.65
2019-03-11T08:22:43.820Z,15.45
2019-03-11T08:25:13.737Z,11.03
2019-03-11T08:27:42.315Z,10.32
2019-03-11T08:30:16.439Z,12.13
2019-03-11T08:32:44.995Z,11.78
2019-03-11T08:35:13.826Z,13.72
2019-03-11T08:37:42.525Z,13.10
2019-03-11T08:40:17.075Z,12.58
2019-03-11T08:42:45.678Z,10.90
2019-03-11T08:45:18.544Z,11.38
2019-03-11T08:47:47.176Z,16.67
2019-03-11T08:50:16.459Z,11.03
2019-03-11T08:52:44.981Z,9.08
2019-03-11T08:55:14.698Z,14.70
2019-03-11T08:57:43.368Z,10.38
2019-03-11T09:00:19.960Z,8.80
2019-03-11T09:02:48.492Z,11.80
2019-03-11T09:05:18.887Z,8.68
2019-03-11T09:07:47.504Z,10.80
2019-03-11T09:10:17.001Z,10.85
2019-03-11T09:12:45.599Z,10.55
2019-03-11T09:15:16.204Z,10.38
2019-03-11T09:17:44.659Z,12.50
2019-03-11T09:20:14.555Z,7.47
2019-03-11T09:22:43.367Z,10.95
2019-03-11T09:25:19.626Z,6.60
2019-03-11T09:27:50.570Z,8.15
2019-03-11T09:30:20.615Z,8.43
2019-03-11T09:32:49.247Z,8.15
2019-03-11T09:35:18.047Z,8.73
2019-03-11T09:37:46.660Z,10.23
2019-03-11T09:40:22.447Z,7.45
2019-03-11T09:42:50.905Z,7.87
2019-03-11T09:45:19.879Z,8.90
2019-03-11T09:47:48.512Z,7.15
2019-03-11T09:50:17.692Z,11.30
2019-03-11T09:52:46.372Z,7.20
2019-03-11T09:55:17.028Z,7.83
2019-03-11T09:57:45.633Z,7.75
2019-03-11T10:00:19.772Z,8.38
2019-03-11T10:02:53.002Z,9.30
2019-03-11T10:05:18.661Z,10.72
2019-03-11T10:07:47.284Z,9.48
2019-03-11T10:10:17.964Z,8.08
2019-03-11T10:12:46.572Z,10.80
2019-03-11T10:15:17.247Z,9.10
2019-03-11T10:17:45.889Z,8.00
2019-03-11T10:20:19.094Z,7.12
2019-03-11T10:22:47.613Z,7.25
2019-03-11T10:25:17.238Z,8.73
2019-03-11T10:27:46.035Z,8.30
2019-03-11T10:30:17.066Z,10.07
2019-03-11T10:32:45.932Z,13.20
2019-03-11T10:35:31.259Z,6.97
2019-03-11T10:37:47.302Z,7.50
2019-03-11T10:40:23.324Z,8.55
2019-03-11T10:42:52.086Z,8.80
2019-03-11T10:45:30.260Z,7.28
2019-03-11T10:47:52.249Z,8.68
2019-03-11T10:50:21.533Z,11.10
2019-03-11T10:52:50.204Z,10.85
2019-03-11T10:55:26.687Z,9.78
2019-03-11T10:57:55.341Z,8.08
2019-03-11T11:00:27.544Z,11.48
2019-03-11T11:02:56.180Z,7.53
2019-03-11T11:05:24.703Z,6.67
2019-03-11T11:07:53.541Z,7.12
2019-03-11T11:10:22.271Z,10.03
2019-03-11T11:12:51.342Z,10.98
2019-03-11T11:15:26.059Z,12.13
2019-03-11T11:17:54.700Z,12.63
2019-03-11T11:20:24.372Z,10.68
2019-03-11T11:25:24.262Z,12.88
2019-03-11T11:27:52.860Z,10.25
2019-03-11T11:30:26.338Z,10.25
2019-03-11T11:32:54.959Z,8.48
2019-03-11T11:35:23.492Z,8.75
2019-03-11T11:37:52.179Z,7.85
2019-03-11T11:40:26.196Z,11.95
2019-03-11T11:42:55.028Z,12.82
2019-03-11T11:45:25.785Z,19.20
2019-03-11T11:47:54.490Z,10.65
2019-03-11T11:50:23.952Z,13.55
2019-03-11T11:52:52.846Z,7.55
2019-03-11T11:55:22.728Z,10.15
2019-03-11T11:57:51.641Z,15.25
2019-03-11T12:00:27.983Z,13.40
2019-03-11T12:02:56.577Z,11.83
2019-03-11T12:05:25.196Z,9.50
2019-03-11T12:07:53.823Z,8.30
2019-03-11T12:10:24.773Z,12.50
2019-03-11T12:12:53.371Z,13.05
2019-03-11T12:15:22.268Z,13.70
2019-03-11T12:17:50.948Z,13.53
2019-03-11T12:20:40.372Z,14.93
2019-03-11T12:23:08.995Z,17.00
2019-03-11T12:25:37.660Z,15.88
2019-03-11T12:28:06.365Z,14.20
2019-03-11T12:30:35.798Z,13.55
2019-03-11T12:33:04.701Z,12.55
2019-03-11T12:35:33.449Z,16.27
2019-03-11T12:38:02.114Z,18.00
2019-03-11T12:40:30.660Z,14.05
2019-03-11T12:42:59.261Z,15.03
2019-03-11T12:45:27.799Z,13.40
2019-03-11T12:47:56.411Z,13.75
2019-03-11T12:50:28.917Z,13.40
2019-03-11T12:52:57.618Z,14.40
2019-03-11T12:55:26.194Z,10.90
2019-03-11T12:57:54.750Z,9.60
2019-03-11T13:00:24.434Z,5.90
2019-03-11T13:05:20.910Z,8.95
2019-03-11T13:07:49.827Z,6.95
2019-03-11T13:10:29.881Z,7.97
2019-03-11T13:12:58.406Z,8.68
2019-03-11T13:15:27.012Z,5.62
2019-03-11T13:17:56.843Z,5.20
2019-03-11T13:20:33.814Z,8.93
2019-03-11T13:23:02.575Z,10.72
2019-03-11T13:25:31.106Z,9.47
2019-03-11T13:27:59.765Z,10.98
2019-03-11T13:30:28.323Z,10.82
2019-03-11T13:32:56.780Z,8.73
2019-03-11T13:35:25.258Z,9.25
2019-03-11T13:37:53.887Z,8.30
2019-03-11T13:40:22.558Z,8.28
2019-03-11T13:42:51.180Z,12.78
2019-03-11T13:45:20.148Z,13.40
2019-03-11T13:47:48.668Z,13.05
2019-03-11T13:50:18.388Z,10.25
2019-03-11T13:55:16.098Z,11.63
2019-03-11T13:57:44.716Z,14.40
2019-03-11T14:00:16.086Z,13.78
2019-03-11T14:02:44.541Z,14.18
2019-03-11T14:05:13.074Z,14.35
2019-03-11T14:07:41.782Z,15.65
2019-03-11T14:10:11.819Z,14.05
2019-03-11T14:12:40.413Z,15.00
2019-03-11T14:15:14.583Z,20.02
2019-03-11T14:17:43.133Z,19.00
2019-03-11T14:20:13.645Z,16.40
2019-03-11T14:22:42.287Z,17.57
2019-03-11T14:25:12.103Z,19.77
2019-03-11T14:27:40.755Z,11.35
2019-03-11T14:30:17.335Z,15.70
2019-03-11T14:32:45.800Z,19.55
2019-03-11T14:35:14.732Z,14.45
2019-03-11T14:37:43.363Z,15.25
2019-03-11T14:40:16.982Z,11.80
2019-03-11T14:42:45.579Z,13.35
2019-03-11T14:45:21.420Z,13.60
2019-03-11T14:47:50.032Z,15.65
2019-03-11T14:50:18.999Z,16.60
2019-03-11T14:52:47.852Z,22.30
2019-03-11T14:55:16.575Z,21.03
2019-03-11T14:57:45.236Z,12.37
2019-03-11T15:00:24.097Z,17.67
2019-03-11T15:02:52.551Z,19.70
2019-03-11T15:05:21.643Z,15.00
2019-03-11T15:07:53.735Z,13.93
2019-03-11T15:10:22.426Z,20.17
2019-03-11T15:12:51.025Z,23.55
2019-03-11T15:15:20.627Z,14.40
2019-03-11T15:17:49.179Z,24.15
2019-03-11T15:20:37.059Z,42.03
2019-03-11T15:23:15.651Z,42.23
2019-03-11T15:25:36.300Z,43.55
2019-03-11T15:28:04.952Z,39.42
2019-03-11T15:30:33.539Z,50.53
2019-03-11T15:33:02.074Z,31.10
2019-03-11T15:35:30.640Z,23.83
2019-03-11T15:38:01.759Z,23.00
2019-03-11T15:40:30.355Z,27.25
2019-03-11T15:42:58.836Z,29.02
2019-03-11T15:45:37.770Z,23.65
2019-03-11T15:47:57.539Z,20.45
2019-03-11T15:50:33.703Z,22.42
2019-03-11T15:53:02.331Z,26.48
2019-03-11T15:55:30.917Z,33.58
2019-03-11T15:57:59.530Z,25.15
2019-03-11T16:00:28.206Z,33.60
2019-03-11T16:02:56.805Z,37.10
2019-03-11T16:05:26.231Z,32.23
2019-03-11T16:07:54.903Z,35.20
2019-03-11T16:10:23.510Z,35.58
2019-03-11T16:12:52.079Z,33.55
2019-03-11T16:15:20.672Z,32.50
2019-03-11T16:17:49.309Z,35.23
2019-03-11T16:20:22.877Z,38.02
2019-03-11T16:22:51.501Z,40.45
2019-03-11T16:25:20.223Z,37.63
2019-03-11T16:27:48.968Z,35.65
2019-03-11T16:30:21.926Z,41.80
2019-03-11T16:33:00.326Z,37.38
2019-03-11T16:35:22.293Z,50.43
2019-03-11T16:37:50.815Z,53.30
2019-03-11T16:40:19.342Z,49.53
2019-03-11T16:42:47.839Z,50.40
2019-03-11T16:45:18.608Z,48.65
2019-03-11T16:47:47.908Z,51.13
2019-03-11T16:50:21.155Z,55.58
2019-03-11T16:52:49.756Z,49.15
2019-03-11T16:55:21.288Z,56.28
2019-03-11T16:57:49.848Z,46.85
2019-03-11T17:00:21.495Z,45.28
2019-03-11T17:02:50.305Z,45.30
2019-03-11T17:05:18.952Z,53.02
2019-03-11T17:07:47.415Z,46.60
2019-03-11T17:10:20.557Z,51.70
2019-03-11T17:12:49.412Z,48.65
2019-03-11T17:15:17.939Z,56.70
2019-03-11T17:17:46.545Z,59.08
2019-03-11T17:20:17.648Z,50.85
2019-03-11T17:22:46.260Z,49.20
2019-03-11T17:25:15.221Z,61.85
2019-03-11T17:27:43.938Z,50.45
2019-03-11T17:30:15.131Z,43.95
2019-03-11T17:32:43.806Z,43.68
2019-03-11T17:35:12.533Z,41.50
2019-03-11T17:37:41.058Z,42.63
2019-03-11T17:40:20.910Z,47.20
2019-03-11T17:42:49.615Z,46.30
2019-03-11T17:45:18.294Z,50.73
2019-03-11T17:47:46.939Z,41.60
2019-03-11T17:50:17.608Z,40.92
2019-03-11T17:52:46.703Z,45.58
2019-03-11T17:55:16.635Z,52.03
2019-03-11T17:57:45.663Z,55.38
2019-03-11T18:00:26.359Z,55.25
2019-03-11T18:02:55.167Z,56.00
2019-03-11T18:05:23.706Z,62.17
2019-03-11T18:07:52.437Z,68.45
2019-03-11T18:10:21.104Z,66.17
2019-03-11T18:12:49.719Z,63.90
2019-03-11T18:15:18.371Z,65.13
2019-03-11T18:17:46.983Z,64.90
2019-03-11T18:20:19.932Z,61.85
2019-03-11T18:22:49.160Z,69.80
2019-03-11T18:25:18.945Z,54.73
2019-03-11T18:30:18.584Z,57.08
2019-03-11T18:32:47.268Z,73.83
2019-03-11T18:35:16.132Z,87.60
2019-03-11T18:37:44.855Z,85.20
2019-03-11T18:40:17.489Z,90.43
2019-03-11T18:42:46.106Z,94.30
2019-03-11T18:45:15.526Z,85.90
2019-03-11T18:47:44.375Z,78.57
2019-03-11T18:50:18.695Z,76.62
2019-03-11T18:52:47.207Z,81.40
2019-03-11T18:55:15.890Z,78.20
2019-03-11T18:57:44.405Z,88.20
2019-03-11T19:00:18.596Z,89.15
2019-03-11T19:02:47.339Z,95.35
2019-03-11T19:05:26.385Z,92.10
2019-03-11T19:07:56.741Z,69.50
2019-03-11T19:10:25.346Z,69.35
2019-03-11T19:12:54.873Z,63.15
2019-03-11T19:15:26.440Z,60.38
2019-03-11T19:17:55.027Z,57.73
2019-03-11T19:20:24.648Z,67.30
2019-03-11T19:25:21.229Z,65.65
2019-03-11T19:27:50.020Z,55.30
2019-03-11T19:30:20.839Z,52.23
2019-03-11T19:32:49.729Z,53.83
2019-03-11T19:35:19.035Z,49.83
2019-03-11T19:37:47.907Z,49.65
2019-03-11T19:40:19.000Z,49.75
2019-03-11T19:42:47.715Z,50.98
2019-03-11T19:45:16.996Z,65.50
2019-03-11T19:47:45.727Z,72.42
2019-03-11T19:50:18.803Z,87.20
2019-03-11T19:52:57.955Z,93.67
2019-03-11T19:55:18.075Z,80.00
2019-03-11T19:57:46.783Z,79.55
2019-03-11T20:00:20.434Z,75.75
2019-03-11T20:02:49.206Z,75.10
2019-03-11T20:05:23.636Z,66.17
2019-03-11T20:07:52.278Z,55.67
2019-03-11T20:10:20.940Z,53.52
2019-03-11T20:12:49.743Z,58.03
2019-03-11T20:15:18.619Z,53.07
2019-03-11T20:17:47.649Z,49.50
2019-03-11T20:20:19.724Z,55.03
2019-03-11T20:22:49.766Z,55.88
2019-03-11T20:25:24.046Z,50.28
2019-03-11T20:27:53.653Z,55.35
2019-03-11T20:30:24.897Z,50.85
2019-03-11T20:32:54.854Z,57.43
2019-03-11T20:35:25.178Z,57.80
2019-03-11T20:37:53.929Z,59.95
2019-03-11T20:40:27.931Z,55.52
2019-03-11T20:42:56.957Z,57.05
2019-03-11T20:45:26.148Z,59.75
2019-03-11T20:47:55.251Z,57.30
2019-03-11T20:50:24.863Z,55.38
2019-03-11T20:55:21.526Z,50.85
2019-03-11T20:57:50.083Z,54.03
2019-03-11T21:00:23.282Z,57.33
2019-03-11T21:02:52.962Z,48.55
2019-03-11T21:07:53.669Z,47.58
2019-03-11T21:10:22.303Z,52.75
2019-03-11T21:12:51.886Z,46.95
2019-03-11T21:15:22.081Z,54.73
2019-03-11T21:17:57.358Z,55.45
2019-03-11T21:20:26.902Z,56.55
2019-03-11T21:22:55.569Z,54.48
2019-03-11T21:25:24.295Z,56.18
2019-03-11T21:27:52.850Z,59.20
2019-03-11T21:30:23.507Z,51.42
2019-03-11T21:32:52.022Z,59.65
2019-03-11T21:35:20.814Z,69.53
2019-03-11T21:37:50.835Z,61.25
2019-03-11T21:40:20.663Z,60.35
2019-03-11T21:42:49.324Z,64.12
2019-03-11T21:45:17.992Z,56.20
2019-03-11T21:47:46.929Z,62.60
2019-03-11T21:50:26.424Z,58.52
2019-03-11T21:52:55.211Z,69.45
2019-03-11T21:55:23.877Z,106.32
2019-03-11T21:57:52.430Z,115.42
2019-03-11T22:00:34.115Z,109.87
2019-03-11T22:02:53.684Z,96.08
2019-03-11T22:05:22.639Z,92.85
2019-03-11T22:07:51.350Z,94.22
2019-03-11T22:10:20.614Z,87.80
2019-03-11T22:12:49.482Z,76.28
2019-03-11T22:15:22.567Z,84.97
2019-03-11T22:17:51.095Z,74.20
2019-03-11T22:20:19.689Z,73.80
2019-03-11T22:22:48.243Z,82.55
2019-03-11T22:25:19.772Z,79.97
2019-03-11T22:27:48.449Z,91.42
2019-03-11T22:30:19.450Z,98.85
2019-03-11T22:32:48.141Z,104.25
2019-03-11T22:35:16.808Z,94.03
2019-03-11T22:37:45.440Z,90.77
2019-03-11T22:40:15.565Z,99.37
2019-03-11T22:42:44.198Z,93.87
2019-03-11T22:45:19.607Z,78.63
2019-03-11T22:47:48.909Z,78.30
2019-03-11T22:50:17.965Z,74.05
2019-03-11T22:52:46.967Z,70.60
2019-03-11T22:55:15.853Z,70.10
2019-03-11T22:57:44.306Z,67.82
2019-03-11T23:00:53.434Z,68.65
2019-03-11T23:03:23.027Z,77.90
2019-03-11T23:10:49.446Z,50.05
2019-03-11T23:13:18.031Z,38.20
2019-03-11T23:15:46.603Z,46.28
2019-03-11T23:18:15.133Z,47.70
2019-03-11T23:20:43.659Z,48.63
2019-03-11T23:23:12.288Z,51.45
2019-03-11T23:25:40.819Z,55.97
2019-03-11T23:28:09.310Z,53.65
2019-03-11T23:30:37.814Z,60.78
2019-03-11T23:33:06.429Z,65.03
2019-03-11T23:35:35.100Z,64.75
2019-03-11T23:38:03.654Z,69.07
2019-03-11T23:40:32.256Z,54.65
2019-03-11T23:43:01.108Z,61.98
2019-03-11T23:45:29.676Z,59.18
2019-03-11T23:47:58.200Z,56.50
2019-03-11T23:50:26.657Z,58.00
2019-03-11T23:52:55.152Z,48.83
2019-03-11T23:55:23.675Z,44.30
2019-03-11T23:57:52.136Z,50.73
